sensor_id;sensor_type;location;lat;lon;timestamp;pressure;altitude;pressure_sealevel;temperature;humidity
25638;BME280;13496;51.040;13.680;2024-01-30T00:03:20;101260.22;;;17.65;52.57
25638;BME280;13496;51.040;13.680;2024-01-30T00:08:22;101262.84;;;17.65;52.21
25638;BME280;13496;51.040;13.680;2024-01-30T00:13:23;101262.97;;;17.63;52.38
25638;BME280;13496;51.040;13.680;2024-01-30T00:18:25;101263.13;;;17.62;52.31
25638;BME280;13496;51.040;13.680;2024-01-30T00:23:27;101258.00;;;17.60;52.31
25638;BME280;13496;51.040;13.680;2024-01-30T00:28:29;101265.75;;;17.62;52.43
25638;BME280;13496;51.040;13.680;2024-01-30T00:33:30;101256.91;;;17.63;52.41
25638;BME280;13496;51.040;13.680;2024-01-30T00:38:32;101264.09;;;17.61;52.39
25638;BME280;13496;51.040;13.680;2024-01-30T00:43:35;101253.91;;;17.58;52.50
25638;BME280;13496;51.040;13.680;2024-01-30T00:48:36;101258.28;;;17.57;52.30
25638;BME280;13496;51.040;13.680;2024-01-30T00:53:38;101253.34;;;17.54;52.34
25638;BME280;13496;51.040;13.680;2024-01-30T00:58:40;101255.13;;;17.54;52.57
25638;BME280;13496;51.040;13.680;2024-01-30T01:03:42;101258.72;;;17.53;52.31
25638;BME280;13496;51.040;13.680;2024-01-30T01:08:45;101253.66;;;17.51;52.45
25638;BME280;13496;51.040;13.680;2024-01-30T01:13:47;101260.53;;;17.52;52.42
25638;BME280;13496;51.040;13.680;2024-01-30T01:18:49;101258.88;;;17.51;52.57
25638;BME280;13496;51.040;13.680;2024-01-30T01:23:51;101259.88;;;17.50;52.24
25638;BME280;13496;51.040;13.680;2024-01-30T01:28:53;101253.38;;;17.45;52.79
25638;BME280;13496;51.040;13.680;2024-01-30T01:33:55;101257.00;;;17.44;52.58
25638;BME280;13496;51.040;13.680;2024-01-30T01:38:56;101252.41;;;17.46;52.58
25638;BME280;13496;51.040;13.680;2024-01-30T01:43:59;101253.22;;;17.46;52.89
25638;BME280;13496;51.040;13.680;2024-01-30T01:49:05;101251.47;;;17.47;52.69
25638;BME280;13496;51.040;13.680;2024-01-30T01:54:08;101253.38;;;17.45;52.79
25638;BME280;13496;51.040;13.680;2024-01-30T01:59:10;101246.50;;;17.44;52.64
25638;BME280;13496;51.040;13.680;2024-01-30T02:04:12;101244.53;;;17.46;52.69
25638;BME280;13496;51.040;13.680;2024-01-30T02:09:14;101242.34;;;17.41;52.79
25638;BME280;13496;51.040;13.680;2024-01-30T02:14:16;101237.91;;;17.41;52.85
25638;BME280;13496;51.040;13.680;2024-01-30T02:19:17;101229.38;;;17.39;52.76
25638;BME280;13496;51.040;13.680;2024-01-30T02:24:19;101235.56;;;17.38;52.75
25638;BME280;13496;51.040;13.680;2024-01-30T02:29:21;101234.47;;;17.41;52.88
25638;BME280;13496;51.040;13.680;2024-01-30T02:34:23;101229.38;;;17.39;52.89
25638;BME280;13496;51.040;13.680;2024-01-30T02:39:25;101230.50;;;17.37;52.68
25638;BME280;13496;51.040;13.680;2024-01-30T02:44:27;101228.53;;;17.39;52.71
25638;BME280;13496;51.040;13.680;2024-01-30T02:49:29;101220.16;;;17.35;52.65
25638;BME280;13496;51.040;13.680;2024-01-30T02:54:30;101222.63;;;17.37;52.85
25638;BME280;13496;51.040;13.680;2024-01-30T02:59:32;101222.47;;;17.38;52.69
25638;BME280;13496;51.040;13.680;2024-01-30T03:04:37;101228.69;;;17.37;52.79
25638;BME280;13496;51.040;13.680;2024-01-30T03:09:41;101213.38;;;17.33;52.74
25638;BME280;13496;51.040;13.680;2024-01-30T03:14:44;101214.06;;;17.35;52.59
25638;BME280;13496;51.040;13.680;2024-01-30T03:19:46;101222.06;;;17.33;52.84
25638;BME280;13496;51.040;13.680;2024-01-30T03:24:47;101214.22;;;17.33;52.82
25638;BME280;13496;51.040;13.680;2024-01-30T03:29:50;101214.06;;;17.35;52.67
25638;BME280;13496;51.040;13.680;2024-01-30T03:34:51;101217.00;;;17.32;52.85
25638;BME280;13496;51.040;13.680;2024-01-30T03:39:53;101214.50;;;17.30;52.67
25638;BME280;13496;51.040;13.680;2024-01-30T03:44:56;101208.41;;;17.30;52.62
25638;BME280;13496;51.040;13.680;2024-01-30T03:49:58;101209.25;;;17.30;52.68
25638;BME280;13496;51.040;13.680;2024-01-30T03:55:00;101210.34;;;17.28;52.91
25638;BME280;13496;51.040;13.680;2024-01-30T04:00:02;101219.06;;;17.28;52.92
25638;BME280;13496;51.040;13.680;2024-01-30T04:05:14;101218.09;;;17.29;52.58
25638;BME280;13496;51.040;13.680;2024-01-30T04:10:16;101212.31;;;17.26;52.76
25638;BME280;13496;51.040;13.680;2024-01-30T04:15:17;101214.09;;;17.25;52.60
25638;BME280;13496;51.040;13.680;2024-01-30T04:20:19;101206.38;;;17.24;52.88
25638;BME280;13496;51.040;13.680;2024-01-30T04:25:21;101218.66;;;17.23;52.77
25638;BME280;13496;51.040;13.680;2024-01-30T04:30:23;101207.06;;;17.26;52.89
25638;BME280;13496;51.040;13.680;2024-01-30T04:35:25;101207.19;;;17.24;52.76
25638;BME280;13496;51.040;13.680;2024-01-30T04:40:27;101206.50;;;17.22;52.88
25638;BME280;13496;51.040;13.680;2024-01-30T04:45:28;101204.56;;;17.24;52.58
25638;BME280;13496;51.040;13.680;2024-01-30T04:50:30;101200.44;;;17.22;52.60
25638;BME280;13496;51.040;13.680;2024-01-30T04:55:32;101198.66;;;17.22;52.60
25638;BME280;13496;51.040;13.680;2024-01-30T05:00:34;101201.28;;;17.22;52.69
25638;BME280;13496;51.040;13.680;2024-01-30T05:05:35;101198.81;;;17.21;52.53
25638;BME280;13496;51.040;13.680;2024-01-30T05:10:37;101199.63;;;17.21;52.57
25638;BME280;13496;51.040;13.680;2024-01-30T05:15:39;101196.31;;;17.19;52.67
25638;BME280;13496;51.040;13.680;2024-01-30T05:20:41;101190.25;;;17.18;52.49
25638;BME280;13496;51.040;13.680;2024-01-30T05:25:42;101202.25;;;17.21;52.55
25638;BME280;13496;51.040;13.680;2024-01-30T05:30:44;101199.09;;;17.17;52.63
25638;BME280;13496;51.040;13.680;2024-01-30T05:35:46;101198.09;;;17.18;52.71
25638;BME280;13496;51.040;13.680;2024-01-30T05:40:48;101191.34;;;17.16;52.58
25638;BME280;13496;51.040;13.680;2024-01-30T05:45:51;101193.97;;;17.16;52.55
25638;BME280;13496;51.040;13.680;2024-01-30T05:50:53;101194.13;;;17.14;52.74
25638;BME280;13496;51.040;13.680;2024-01-30T05:55:55;101195.75;;;17.15;52.56
25638;BME280;13496;51.040;13.680;2024-01-30T06:00:57;101193.31;;;17.14;52.66
25638;BME280;13496;51.040;13.680;2024-01-30T06:05:59;101198.53;;;17.14;52.87
25638;BME280;13496;51.040;13.680;2024-01-30T06:11:01;101185.72;;;17.11;52.66
25638;BME280;13496;51.040;13.680;2024-01-30T06:16:03;101198.53;;;17.14;52.79
25638;BME280;13496;51.040;13.680;2024-01-30T06:21:05;101195.22;;;17.12;52.85
25638;BME280;13496;51.040;13.680;2024-01-30T06:26:07;101189.16;;;17.11;52.69
25638;BME280;13496;51.040;13.680;2024-01-30T06:31:09;101190.69;;;17.14;52.66
25638;BME280;13496;51.040;13.680;2024-01-30T06:36:11;101189.00;;;17.13;53.09
25638;BME280;13496;51.040;13.680;2024-01-30T06:41:12;101183.09;;;17.11;53.29
25638;BME280;13496;51.040;13.680;2024-01-30T06:46:14;101183.09;;;17.11;53.27
25638;BME280;13496;51.040;13.680;2024-01-30T06:51:16;101188.19;;;17.12;53.15
25638;BME280;13496;51.040;13.680;2024-01-30T06:56:18;101188.34;;;17.11;53.41
25638;BME280;13496;51.040;13.680;2024-01-30T07:01:27;101190.81;;;17.12;53.18
25638;BME280;13496;51.040;13.680;2024-01-30T07:06:30;101186.09;;;17.16;53.14
25638;BME280;13496;51.040;13.680;2024-01-30T07:11:31;101189.69;;;17.15;53.47
25638;BME280;13496;51.040;13.680;2024-01-30T07:16:33;101195.66;;;17.17;53.13
25638;BME280;13496;51.040;13.680;2024-01-30T07:21:35;101190.41;;;17.17;53.23
25638;BME280;13496;51.040;13.680;2024-01-30T07:26:37;101189.41;;;17.18;53.11
25638;BME280;13496;51.040;13.680;2024-01-30T07:31:39;101179.75;;;17.18;53.13
25638;BME280;13496;51.040;13.680;2024-01-30T07:36:42;101189.97;;;17.22;53.09
25638;BME280;13496;51.040;13.680;2024-01-30T07:41:43;101188.16;;;17.22;52.94
25638;BME280;13496;51.040;13.680;2024-01-30T07:46:45;101183.56;;;17.24;52.98
25638;BME280;13496;51.040;13.680;2024-01-30T07:51:47;101188.25;;;17.30;52.59
25638;BME280;13496;51.040;13.680;2024-01-30T07:56:49;101172.50;;;17.40;52.55
25638;BME280;13496;51.040;13.680;2024-01-30T08:01:51;101181.91;;;17.33;52.84
25638;BME280;13496;51.040;13.680;2024-01-30T08:06:52;101181.63;;;17.36;52.80
25638;BME280;13496;51.040;13.680;2024-01-30T08:11:54;101178.81;;;17.47;52.62
25638;BME280;13496;51.040;13.680;2024-01-30T08:16:56;101179.34;;;17.51;52.54
25638;BME280;13496;51.040;13.680;2024-01-30T08:21:58;101180.09;;;17.61;52.08
25638;BME280;13496;51.040;13.680;2024-01-30T08:26:59;101179.81;;;17.64;51.99
25638;BME280;13496;51.040;13.680;2024-01-30T08:32:05;101175.63;;;17.81;51.64
25638;BME280;13496;51.040;13.680;2024-01-30T08:37:07;101182.91;;;18.05;51.45
25638;BME280;13496;51.040;13.680;2024-01-30T08:42:09;101180.97;;;18.25;50.98
25638;BME280;13496;51.040;13.680;2024-01-30T08:47:11;101176.34;;;18.80;49.50
25638;BME280;13496;51.040;13.680;2024-01-30T08:52:13;101181.59;;;19.41;48.06
25638;BME280;13496;51.040;13.680;2024-01-30T08:57:15;101186.94;;;18.53;50.05
25638;BME280;13496;51.040;13.680;2024-01-30T09:02:17;101195.47;;;18.29;50.57
25638;BME280;13496;51.040;13.680;2024-01-30T09:07:19;101201.38;;;18.49;50.27
25638;BME280;13496;51.040;13.680;2024-01-30T09:12:21;101203.03;;;18.94;49.39
25638;BME280;13496;51.040;13.680;2024-01-30T09:17:23;101214.28;;;18.24;50.76
25638;BME280;13496;51.040;13.680;2024-01-30T09:22:25;101198.06;;;18.11;50.98
25638;BME280;13496;51.040;13.680;2024-01-30T09:27:27;101196.72;;;18.07;51.01
25638;BME280;13496;51.040;13.680;2024-01-30T09:32:29;101202.28;;;18.04;51.42
25638;BME280;13496;51.040;13.680;2024-01-30T09:37:31;101198.06;;;18.11;51.03
25638;BME280;13496;51.040;13.680;2024-01-30T09:42:36;101198.19;;;18.09;51.10
25638;BME280;13496;51.040;13.680;2024-01-30T09:47:42;101190.19;;;18.11;51.03
25638;BME280;13496;51.040;13.680;2024-01-30T09:52:45;101180.50;;;18.11;51.31
25638;BME280;13496;51.040;13.680;2024-01-30T09:57:48;101179.69;;;18.11;51.17
25638;BME280;13496;51.040;13.680;2024-01-30T10:02:50;101182.31;;;18.11;51.35
25638;BME280;13496;51.040;13.680;2024-01-30T10:07:56;101184.47;;;18.16;51.31
25638;BME280;13496;51.040;13.680;2024-01-30T10:12:58;101162.34;;;18.18;51.25
25638;BME280;13496;51.040;13.680;2024-01-30T10:18:00;101159.44;;;18.21;51.15
25638;BME280;13496;51.040;13.680;2024-01-30T10:23:02;101162.72;;;18.23;51.32
25638;BME280;13496;51.040;13.680;2024-01-30T10:28:04;101154.53;;;18.26;50.94
25638;BME280;13496;51.040;13.680;2024-01-30T10:33:06;101152.72;;;18.27;51.32
25638;BME280;13496;51.040;13.680;2024-01-30T10:38:11;101151.63;;;18.29;51.13
25638;BME280;13496;51.040;13.680;2024-01-30T10:43:15;101144.38;;;18.31;51.31
25638;BME280;13496;51.040;13.680;2024-01-30T10:48:21;101142.16;;;18.36;51.09
25638;BME280;13496;51.040;13.680;2024-01-30T10:53:28;101135.44;;;18.42;50.71
25638;BME280;13496;51.040;13.680;2024-01-30T10:58:31;101132.38;;;18.47;50.59
25638;BME280;13496;51.040;13.680;2024-01-30T11:03:33;101119.41;;;18.53;50.73
25638;BME280;13496;51.040;13.680;2024-01-30T11:08:37;101131.03;;;18.95;49.77
25638;BME280;13496;51.040;13.680;2024-01-30T11:13:39;101115.72;;;18.64;50.20
25638;BME280;13496;51.040;13.680;2024-01-30T11:18:42;101103.53;;;18.55;50.73
25638;BME280;13496;51.040;13.680;2024-01-30T11:23:43;101093.97;;;18.54;50.45
25638;BME280;13496;51.040;13.680;2024-01-30T11:28:52;101098.72;;;18.50;50.90
25638;BME280;13496;51.040;13.680;2024-01-30T11:33:56;101102.19;;;18.51;50.78
25638;BME280;13496;51.040;13.680;2024-01-30T11:38:58;101110.19;;;18.49;50.86
25638;BME280;13496;51.040;13.680;2024-01-30T11:43:59;101104.81;;;18.51;50.74
25638;BME280;13496;51.040;13.680;2024-01-30T11:49:01;101105.75;;;18.50;50.77
25638;BME280;13496;51.040;13.680;2024-01-30T11:54:04;101091.66;;;18.51;50.58
25638;BME280;13496;51.040;13.680;2024-01-30T11:59:06;101087.69;;;18.47;50.86
25638;BME280;13496;51.040;13.680;2024-01-30T12:04:07;101083.25;;;18.47;50.71
25638;BME280;13496;51.040;13.680;2024-01-30T12:09:12;101083.09;;;18.49;50.14
25638;BME280;13496;51.040;13.680;2024-01-30T12:14:16;101075.50;;;18.46;50.56
25638;BME280;13496;51.040;13.680;2024-01-30T12:19:25;101066.97;;;18.44;50.71
25638;BME280;13496;51.040;13.680;2024-01-30T12:24:27;101065.47;;;18.41;50.70
25638;BME280;13496;51.040;13.680;2024-01-30T12:29:32;101069.91;;;18.41;50.37
25638;BME280;13496;51.040;13.680;2024-01-30T12:34:40;101068.78;;;18.43;50.74
25638;BME280;13496;51.040;13.680;2024-01-30T12:39:42;101063.66;;;18.42;50.37
25638;BME280;13496;51.040;13.680;2024-01-30T12:44:44;101064.66;;;18.41;50.58
25638;BME280;13496;51.040;13.680;2024-01-30T12:49:46;101054.97;;;18.41;50.57
25638;BME280;13496;51.040;13.680;2024-01-30T12:54:48;101056.09;;;18.38;50.75
25638;BME280;13496;51.040;13.680;2024-01-30T12:59:50;101059.53;;;18.39;50.70
25638;BME280;13496;51.040;13.680;2024-01-30T13:04:52;101059.53;;;18.39;50.67
25638;BME280;13496;51.040;13.680;2024-01-30T13:09:54;101056.78;;;18.41;50.39
25638;BME280;13496;51.040;13.680;2024-01-30T13:14:56;101052.50;;;18.40;50.56
25638;BME280;13496;51.040;13.680;2024-01-30T13:19:57;101045.44;;;18.40;50.76
25638;BME280;13496;51.040;13.680;2024-01-30T13:24:59;101055.28;;;18.38;50.53
25638;BME280;13496;51.040;13.680;2024-01-30T13:30:01;101047.56;;;18.36;50.52
25638;BME280;13496;51.040;13.680;2024-01-30T13:35:03;101039.97;;;18.33;50.67
25638;BME280;13496;51.040;13.680;2024-01-30T13:40:05;101035.41;;;18.35;50.78
25638;BME280;13496;51.040;13.680;2024-01-30T13:45:10;101037.50;;;18.32;50.92
25638;BME280;13496;51.040;13.680;2024-01-30T13:50:12;101029.94;;;18.29;50.78
25638;BME280;13496;51.040;13.680;2024-01-30T13:55:16;101034.38;;;18.28;50.91
25638;BME280;13496;51.040;13.680;2024-01-30T14:00:18;101035.19;;;18.29;50.82
25638;BME280;13496;51.040;13.680;2024-01-30T14:05:20;101033.69;;;18.26;50.89
25638;BME280;13496;51.040;13.680;2024-01-30T14:10:23;101023.47;;;18.23;50.76
25638;BME280;13496;51.040;13.680;2024-01-30T14:15:25;101021.03;;;18.22;51.20
25638;BME280;13496;51.040;13.680;2024-01-30T14:20:26;101028.22;;;18.20;51.26
25638;BME280;13496;51.040;13.680;2024-01-30T14:25:28;101029.03;;;18.20;51.08
25638;BME280;13496;51.040;13.680;2024-01-30T14:30:30;101027.41;;;18.19;51.10
25638;BME280;13496;51.040;13.680;2024-01-30T14:35:32;101024.41;;;18.14;50.94
25638;BME280;13496;51.040;13.680;2024-01-30T14:40:33;101020.81;;;18.15;50.90
25638;BME280;13496;51.040;13.680;2024-01-30T14:45:35;101022.75;;;18.13;51.06
25638;BME280;13496;51.040;13.680;2024-01-30T14:50:37;101016.84;;;18.11;51.04
25638;BME280;13496;51.040;13.680;2024-01-30T14:55:39;101020.75;;;18.07;50.91
25638;BME280;13496;51.040;13.680;2024-01-30T15:00:41;101037.81;;;18.03;51.44
25638;BME280;13496;51.040;13.680;2024-01-30T15:05:43;101025.09;;;17.98;51.28
25638;BME280;13496;51.040;13.680;2024-01-30T15:10:44;101028.41;;;18.00;51.17
25638;BME280;13496;51.040;13.680;2024-01-30T15:15:46;101027.22;;;17.95;51.26
25638;BME280;13496;51.040;13.680;2024-01-30T15:20:49;101019.34;;;17.95;51.34
25638;BME280;13496;51.040;13.680;2024-01-30T15:25:51;101016.06;;;17.93;51.53
25638;BME280;13496;51.040;13.680;2024-01-30T15:30:53;101024.22;;;17.89;51.65
25638;BME280;13496;51.040;13.680;2024-01-30T15:35:54;101025.50;;;17.85;51.53
25638;BME280;13496;51.040;13.680;2024-01-30T15:40:57;101019.97;;;17.88;51.35
25638;BME280;13496;51.040;13.680;2024-01-30T15:45:59;101031.44;;;17.87;51.74
25638;BME280;13496;51.040;13.680;2024-01-30T15:51:02;101031.59;;;17.86;51.67
25638;BME280;13496;51.040;13.680;2024-01-30T15:56:04;101045.69;;;17.85;51.79
25638;BME280;13496;51.040;13.680;2024-01-30T16:01:06;101052.06;;;17.82;51.53
25638;BME280;13496;51.040;13.680;2024-01-30T16:06:28;101060.91;;;17.81;51.89
25638;BME280;13496;51.040;13.680;2024-01-30T16:11:50;101062.84;;;17.79;52.01
25638;BME280;13496;51.040;13.680;2024-01-30T16:17:10;101061.75;;;17.82;51.67
25638;BME280;13496;51.040;13.680;2024-01-30T16:22:32;101065.66;;;17.78;51.85
25638;BME280;13496;51.040;13.680;2024-01-30T16:27:53;101061.91;;;17.80;51.56
25638;BME280;13496;51.040;13.680;2024-01-30T16:33:14;101065.66;;;17.78;51.92
25638;BME280;13496;51.040;13.680;2024-01-30T16:38:38;101075.03;;;17.80;51.60
25638;BME280;13496;51.040;13.680;2024-01-30T16:44:05;101062.63;;;17.73;52.10
25638;BME280;13496;51.040;13.680;2024-01-30T16:49:29;101077.84;;;17.69;51.68
25638;BME280;13496;51.040;13.680;2024-01-30T16:54:54;101065.69;;;17.68;51.19
25638;BME280;13496;51.040;13.680;2024-01-30T17:00:15;101079.75;;;17.77;50.75
25638;BME280;13496;51.040;13.680;2024-01-30T17:05:42;101076.16;;;17.78;51.07
25638;BME280;13496;51.040;13.680;2024-01-30T17:11:03;101075.84;;;17.81;50.83
25638;BME280;13496;51.040;13.680;2024-01-30T17:16:25;101089.81;;;17.81;50.69
25638;BME280;13496;51.040;13.680;2024-01-30T17:21:51;101084.09;;;17.86;50.91
25638;BME280;13496;51.040;13.680;2024-01-30T17:27:13;101077.03;;;17.86;50.91
25638;BME280;13496;51.040;13.680;2024-01-30T17:32:34;101075.41;;;17.85;50.84
25638;BME280;13496;51.040;13.680;2024-01-30T17:38:01;101068.22;;;17.87;51.29
25638;BME280;13496;51.040;13.680;2024-01-30T17:43:24;101079.38;;;17.89;51.85
25638;BME280;13496;51.040;13.680;2024-01-30T17:48:47;101080.72;;;17.94;51.76
25638;BME280;13496;51.040;13.680;2024-01-30T17:53:51;101075.84;;;17.99;51.57
25638;BME280;13496;51.040;13.680;2024-01-30T17:58:53;101091.97;;;18.04;51.87
25638;BME280;13496;51.040;13.680;2024-01-30T18:03:55;101082.44;;;18.03;51.88
25638;BME280;13496;51.040;13.680;2024-01-30T18:08:57;101086.41;;;18.07;51.77
25638;BME280;13496;51.040;13.680;2024-01-30T18:13:58;101083.63;;;18.08;52.02
25638;BME280;13496;51.040;13.680;2024-01-30T18:19:01;101084.44;;;18.09;52.17
25638;BME280;13496;51.040;13.680;2024-01-30T18:24:03;101086.13;;;18.10;51.94
25638;BME280;13496;51.040;13.680;2024-01-30T18:29:04;101086.94;;;18.10;52.16
25638;BME280;13496;51.040;13.680;2024-01-30T18:34:07;101087.47;;;18.14;52.18
25638;BME280;13496;51.040;13.680;2024-01-30T18:39:09;101095.19;;;18.16;52.11
25638;BME280;13496;51.040;13.680;2024-01-30T18:44:11;101103.13;;;18.24;51.97
25638;BME280;13496;51.040;13.680;2024-01-30T18:49:13;101103.63;;;18.27;52.08
25638;BME280;13496;51.040;13.680;2024-01-30T18:54:15;101097.03;;;18.23;52.86
25638;BME280;13496;51.040;13.680;2024-01-30T18:59:18;101099.00;;;18.21;53.29
25638;BME280;13496;51.040;13.680;2024-01-30T19:04:19;101090.44;;;18.19;53.70
25638;BME280;13496;51.040;13.680;2024-01-30T19:09:22;101099.00;;;18.21;53.66
25638;BME280;13496;51.040;13.680;2024-01-30T19:14:23;101103.44;;;18.21;53.42
25638;BME280;13496;51.040;13.680;2024-01-30T19:19:25;101107.84;;;18.20;52.99
25638;BME280;13496;51.040;13.680;2024-01-30T19:24:27;101105.22;;;18.20;53.00
25638;BME280;13496;51.040;13.680;2024-01-30T19:29:29;101111.63;;;18.18;52.93
25638;BME280;13496;51.040;13.680;2024-01-30T19:34:31;101117.69;;;18.18;52.72
25638;BME280;13496;51.040;13.680;2024-01-30T19:39:33;101123.94;;;18.17;52.63
25638;BME280;13496;51.040;13.680;2024-01-30T19:44:35;101120.31;;;18.18;52.58
25638;BME280;13496;51.040;13.680;2024-01-30T19:49:37;101127.22;;;18.19;52.13
25638;BME280;13496;51.040;13.680;2024-01-30T19:54:41;101130.84;;;18.18;52.31
25638;BME280;13496;51.040;13.680;2024-01-30T19:59:42;101137.72;;;18.19;52.03
25638;BME280;13496;51.040;13.680;2024-01-30T20:04:44;101135.91;;;18.20;51.91
25638;BME280;13496;51.040;13.680;2024-01-30T20:09:46;101138.41;;;18.21;51.86
25638;BME280;13496;51.040;13.680;2024-01-30T20:14:49;101154.00;;;18.23;52.04
25638;BME280;13496;51.040;13.680;2024-01-30T20:19:51;101153.34;;;18.21;52.08
25638;BME280;13496;51.040;13.680;2024-01-30T20:24:54;101168.94;;;18.22;52.09
25638;BME280;13496;51.040;13.680;2024-01-30T20:29:57;101152.91;;;18.25;51.36
25638;BME280;13496;51.040;13.680;2024-01-30T20:34:58;101155.22;;;18.28;51.50
25638;BME280;13496;51.040;13.680;2024-01-30T20:40:00;101161.59;;;18.26;51.71
25638;BME280;13496;51.040;13.680;2024-01-30T20:45:02;101162.25;;;18.28;51.70
25638;BME280;13496;51.040;13.680;2024-01-30T20:50:07;101163.94;;;18.29;51.47
25638;BME280;13496;51.040;13.680;2024-01-30T20:55:09;101166.84;;;18.26;51.69
25638;BME280;13496;51.040;13.680;2024-01-30T21:00:11;101162.41;;;18.26;51.95
25638;BME280;13496;51.040;13.680;2024-01-30T21:05:14;101153.72;;;18.26;51.85
25638;BME280;13496;51.040;13.680;2024-01-30T21:10:20;101148.91;;;18.21;51.95
25638;BME280;13496;51.040;13.680;2024-01-30T21:15:22;101161.72;;;18.24;51.71
25638;BME280;13496;51.040;13.680;2024-01-30T21:20:24;101161.31;;;18.29;51.72
25638;BME280;13496;51.040;13.680;2024-01-30T21:25:26;101163.41;;;18.25;51.78
25638;BME280;13496;51.040;13.680;2024-01-30T21:30:28;101165.34;;;18.23;52.04
25638;BME280;13496;51.040;13.680;2024-01-30T21:35:30;101179.91;;;18.18;52.35
25638;BME280;13496;51.040;13.680;2024-01-30T21:40:32;101168.59;;;18.17;52.86
25638;BME280;13496;51.040;13.680;2024-01-30T21:45:33;101173.84;;;18.17;52.72
25638;BME280;13496;51.040;13.680;2024-01-30T21:50:35;101175.63;;;18.17;52.64
25638;BME280;13496;51.040;13.680;2024-01-30T21:55:37;101176.91;;;18.12;52.99
25638;BME280;13496;51.040;13.680;2024-01-30T22:00:39;101185.59;;;18.13;53.19
25638;BME280;13496;51.040;13.680;2024-01-30T22:05:41;101189.66;;;18.07;53.04
25638;BME280;13496;51.040;13.680;2024-01-30T22:10:42;101181.63;;;18.09;52.94
25638;BME280;13496;51.040;13.680;2024-01-30T22:15:45;101183.72;;;18.05;53.59
25638;BME280;13496;51.040;13.680;2024-01-30T22:20:46;101184.56;;;18.06;53.30
25638;BME280;13496;51.040;13.680;2024-01-30T22:25:48;101177.94;;;18.02;53.70
25638;BME280;13496;51.040;13.680;2024-01-30T22:30:51;101183.34;;;18.00;53.67
25638;BME280;13496;51.040;13.680;2024-01-30T22:35:53;101183.19;;;18.02;53.71
25638;BME280;13496;51.040;13.680;2024-01-30T22:40:57;101186.28;;;17.97;53.84
25638;BME280;13496;51.040;13.680;2024-01-30T22:45:59;101189.88;;;17.96;54.03
25638;BME280;13496;51.040;13.680;2024-01-30T22:51:01;101198.75;;;17.95;53.79
25638;BME280;13496;51.040;13.680;2024-01-30T22:56:03;101204.66;;;17.97;54.02
25638;BME280;13496;51.040;13.680;2024-01-30T23:01:05;101201.38;;;17.95;53.85
25638;BME280;13496;51.040;13.680;2024-01-30T23:06:09;101197.53;;;17.89;54.30
25638;BME280;13496;51.040;13.680;2024-01-30T23:11:13;101196.69;;;17.89;54.02
25638;BME280;13496;51.040;13.680;2024-01-30T23:16:15;101192.28;;;17.89;54.05
25638;BME280;13496;51.040;13.680;2024-01-30T23:21:17;101212.63;;;17.87;54.37
25638;BME280;13496;51.040;13.680;2024-01-30T23:26:19;101210.66;;;17.89;54.04
25638;BME280;13496;51.040;13.680;2024-01-30T23:31:21;101207.38;;;17.87;53.85
25638;BME280;13496;51.040;13.680;2024-01-30T23:36:23;101208.19;;;17.88;54.45
25638;BME280;13496;51.040;13.680;2024-01-30T23:41:25;101211.22;;;17.83;54.25
25638;BME280;13496;51.040;13.680;2024-01-30T23:46:27;101207.66;;;17.84;54.54
25638;BME280;13496;51.040;13.680;2024-01-30T23:51:29;101206.66;;;17.85;54.53
25638;BME280;13496;51.040;13.680;2024-01-30T23:56:38;101211.91;;;17.85;54.63
